Black Hawk, Mississippi
Current Conditions -  °F | °C
As of 6:53 PM on Saturday 25 Oct 2014 (Local Time) from KGWO Reporting Station
Clear Clear  
Wind Chill: 69°   Ceiling: Unl
Heat Index: 69°   Visibility: 10mi
Dew Point: 63°   Wind: 3mph
Humidity: 81%   Direction: 210°SSW
Pressure: 30.04"   Gusts: NA
Location:  33.3683°N, 89.9772°W
Report Text: KGWO 252353Z AUTO 21003KT 10SM CLR 21/17 A3004 RMK AO2 SLP173 T02060172 10272 20206 55001 TSNO
Loading
Personal Weather Stations






























Interactive Weather Map
Tropical Storm Tracking
New forecast layout! Learn more

10-Day Weather Forecast

Advertisements
Track Severe Weather on mobile